Time;durP1;ratioP1;P1;durP2;ratioP2;P2;SDS_P1;SDS_P2;PMS_P1;PMS_P2;Temp;Humidity;BMP_temperature;BMP_pressure;BME280_temperature;BME280_humidity;BME280_pressure;Samples;Min_cycle;Max_cycle;Signal;HPM_P1;HPM_P2
2023/07/26 00:00:11;;;;;;;1.58;0.95;;;24.30;51.00;;;;;;5058234;28;20440;-63
2023/07/26 00:02:37;;;;;;;1.63;0.90;;;24.30;51.00;;;;;;5060292;28;20094;-64
2023/07/26 00:05:03;;;;;;;1.30;0.90;;;24.30;51.00;;;;;;5059191;28;20445;-64
2023/07/26 00:07:28;;;;;;;1.30;0.90;;;24.30;51.00;;;;;;5058809;28;20048;-63
2023/07/26 00:09:54;;;;;;;1.23;0.80;;;24.30;51.00;;;;;;5060496;28;20403;-63
2023/07/26 00:12:20;;;;;;;1.20;0.80;;;24.30;51.00;;;;;;5061466;28;20036;-63
2023/07/26 00:14:45;;;;;;;1.33;0.80;;;24.30;51.00;;;;;;5061018;28;20033;-63
2023/07/26 00:17:11;;;;;;;1.30;0.80;;;24.30;51.00;;;;;;5056913;28;20243;-63
2023/07/26 00:19:36;;;;;;;1.55;0.90;;;24.30;51.00;;;;;;5059526;28;20028;-63
2023/07/26 00:22:02;;;;;;;1.20;0.77;;;24.30;50.90;;;;;;5057352;28;20396;-64
2023/07/26 00:24:28;;;;;;;1.50;0.80;;;24.30;51.00;;;;;;5060831;28;20067;-62
2023/07/26 00:26:54;;;;;;;1.77;0.80;;;24.30;51.00;;;;;;5059991;28;20028;-64
2023/07/26 00:29:21;;;;;;;1.67;0.80;;;24.30;51.00;;;;;;5057832;28;20033;-63
2023/07/26 00:31:47;;;;;;;1.35;0.80;;;24.30;51.00;;;;;;5057412;28;20036;-63
2023/07/26 00:34:13;;;;;;;1.55;0.80;;;24.30;50.90;;;;;;5058801;28;20025;-63
2023/07/26 00:36:38;;;;;;;1.50;0.70;;;24.30;50.90;;;;;;5057400;28;20032;-63
2023/07/26 00:39:04;;;;;;;1.73;0.88;;;24.30;51.00;;;;;;5060431;28;20388;-63
2023/07/26 00:41:30;;;;;;;1.83;0.80;;;24.30;51.00;;;;;;5061119;28;20452;-63
2023/07/26 00:43:55;;;;;;;1.52;0.90;;;24.30;51.00;;;;;;5059629;28;20373;-63
2023/07/26 00:46:21;;;;;;;1.17;0.70;;;24.30;50.90;;;;;;5058978;28;20037;-63
2023/07/26 00:48:48;;;;;;;1.15;0.80;;;24.30;50.90;;;;;;5059360;28;20044;-63
2023/07/26 00:51:14;;;;;;;1.38;0.80;;;24.20;50.90;;;;;;5056062;28;20024;-64
2023/07/26 00:53:40;;;;;;;1.30;0.80;;;24.30;50.90;;;;;;5058820;28;20040;-64
2023/07/26 00:56:06;;;;;;;1.50;0.90;;;24.20;50.90;;;;;;5057820;28;20544;-63
2023/07/26 00:58:32;;;;;;;0.60;0.60;;;24.30;50.90;;;;;;5060114;28;20025;-63
2023/07/26 01:00:59;;;;;;;1.83;0.70;;;24.20;50.90;;;;;;5056616;28;20106;-63
2023/07/26 01:03:25;;;;;;;1.20;0.80;;;24.20;50.90;;;;;;5058479;28;20056;-63
2023/07/26 01:06:20;;;;;;;1.75;0.73;;;24.20;50.90;;;;;;5057458;28;20029;-63
2023/07/26 01:09:11;;;;;;;1.15;0.70;;;24.20;50.90;;;;;;5057735;28;20087;-62
2023/07/26 01:11:51;;;;;;;1.10;0.80;;;24.20;50.90;;;;;;5059741;28;20121;-63
2023/07/26 01:14:27;;;;;;;1.15;0.60;;;24.20;50.90;;;;;;5057578;28;20035;-62
2023/07/26 01:16:53;;;;;;;1.20;0.75;;;24.20;50.90;;;;;;5055931;28;20066;-62
2023/07/26 01:19:18;;;;;;;1.83;0.80;;;24.20;50.90;;;;;;5058549;28;20021;-63
2023/07/26 01:21:44;;;;;;;1.77;0.70;;;24.20;50.90;;;;;;5059698;28;20488;-63
2023/07/26 01:24:10;;;;;;;1.27;0.70;;;24.20;50.90;;;;;;5058152;28;20072;-62
2023/07/26 01:26:35;;;;;;;1.05;0.70;;;24.20;50.90;;;;;;5056721;28;20066;-63
2023/07/26 01:29:01;;;;;;;1.70;0.90;;;24.20;50.90;;;;;;5057933;28;20052;-63
2023/07/26 01:31:26;;;;;;;1.17;0.70;;;24.20;50.90;;;;;;5054846;28;20039;-62
2023/07/26 01:33:53;;;;;;;1.08;0.70;;;24.20;50.90;;;;;;5058075;28;20385;-63
2023/07/26 01:36:22;;;;;;;1.23;0.77;;;24.20;50.90;;;;;;5059649;28;20064;-62
2023/07/26 01:38:48;;;;;;;;;;;24.20;50.80;;;;;;5059676;28;20028;-63
2023/07/26 01:41:15;;;;;;;1.00;0.68;;;24.20;50.90;;;;;;5058920;28;19908;-63
2023/07/26 01:43:41;;;;;;;0.98;0.70;;;24.20;51.40;;;;;;5090878;28;20172;-63
2023/07/26 01:46:10;;;;;;;1.00;0.60;;;24.20;50.80;;;;;;5059781;28;20052;-63
2023/07/26 01:48:36;;;;;;;0.80;0.63;;;24.20;50.80;;;;;;5057881;28;20028;-63
2023/07/26 01:51:01;;;;;;;0.95;0.70;;;24.20;50.90;;;;;;5058577;28;20388;-63
2023/07/26 01:53:27;;;;;;;0.95;0.60;;;24.20;50.90;;;;;;5059319;28;20032;-62
2023/07/26 01:55:53;;;;;;;1.25;0.93;;;24.20;50.90;;;;;;5059676;28;20029;-62
2023/07/26 01:58:19;;;;;;;1.20;0.80;;;24.20;50.90;;;;;;5058627;28;20033;-63
2023/07/26 02:00:44;;;;;;;0.90;0.60;;;24.20;50.90;;;;;;5061409;28;20488;-62
2023/07/26 02:03:10;;;;;;;0.85;0.70;;;24.10;50.80;;;;;;5056432;28;20122;-63
2023/07/26 02:05:41;;;;;;;1.67;0.90;;;24.10;50.80;;;;;;5059201;28;20039;-62
2023/07/26 02:08:07;;;;;;;1.10;0.80;;;24.20;50.80;;;;;;5057808;28;20024;-62
2023/07/26 02:10:32;;;;;;;1.75;0.90;;;24.20;50.90;;;;;;5056348;28;20488;-63
2023/07/26 02:12:58;;;;;;;1.00;0.70;;;24.20;50.80;;;;;;5058181;28;20025;-62
2023/07/26 02:15:24;;;;;;;1.48;0.80;;;24.10;50.80;;;;;;5057919;28;20111;-62
2023/07/26 02:17:49;;;;;;;0.90;0.70;;;24.10;50.80;;;;;;5053773;28;20029;-63
2023/07/26 02:20:15;;;;;;;1.52;0.80;;;24.10;50.80;;;;;;5056929;28;20040;-63
2023/07/26 02:22:40;;;;;;;1.35;0.60;;;24.10;50.80;;;;;;5058587;28;20103;-63
2023/07/26 02:25:06;;;;;;;1.20;0.70;;;24.10;50.80;;;;;;5056804;28;20073;-62
2023/07/26 02:27:32;;;;;;;1.50;0.80;;;24.10;50.80;;;;;;5059509;28;20021;-62
2023/07/26 02:29:58;;;;;;;1.13;0.70;;;24.10;50.80;;;;;;5057126;28;20024;-62
2023/07/26 02:32:23;;;;;;;1.15;0.70;;;24.10;50.80;;;;;;5056333;28;20044;-63
2023/07/26 02:34:49;;;;;;;0.80;0.60;;;24.10;50.80;;;;;;5056905;28;20017;-62
2023/07/26 02:37:15;;;;;;;1.27;0.80;;;24.10;50.80;;;;;;5058133;28;20039;-62
2023/07/26 02:39:40;;;;;;;0.80;0.70;;;24.10;50.80;;;;;;5055526;28;20683;-63
2023/07/26 02:42:06;;;;;;;1.15;0.70;;;24.10;50.80;;;;;;5056112;28;20037;-62
2023/07/26 02:44:31;;;;;;;1.00;0.60;;;24.10;50.80;;;;;;5057365;28;20484;-62
2023/07/26 02:46:57;;;;;;;0.82;0.70;;;24.10;50.80;;;;;;5055051;28;20484;-62
2023/07/26 02:49:22;;;;;;;1.33;0.70;;;24.10;50.80;;;;;;5057310;28;20129;-61
2023/07/26 02:51:48;;;;;;;1.13;0.73;;;24.10;50.80;;;;;;5054372;28;20041;-63
2023/07/26 02:54:14;;;;;;;0.77;0.70;;;24.10;50.80;;;;;;5059152;28;20060;-63
2023/07/26 02:56:39;;;;;;;1.20;0.68;;;24.10;50.80;;;;;;5054626;28;20044;-63
2023/07/26 02:59:05;;;;;;;0.95;0.75;;;24.10;50.80;;;;;;5055974;28;20021;-63
2023/07/26 03:01:31;;;;;;;0.93;0.70;;;24.10;50.80;;;;;;5056931;28;20032;-63
2023/07/26 03:03:56;;;;;;;1.45;0.85;;;24.10;50.80;;;;;;5056243;28;20117;-64
2023/07/26 03:06:22;;;;;;;1.05;0.70;;;24.10;50.80;;;;;;5055699;28;20025;-63
2023/07/26 03:08:48;;;;;;;0.73;0.70;;;24.10;50.80;;;;;;5056640;28;20029;-63
2023/07/26 03:11:13;;;;;;;1.30;0.65;;;24.10;51.30;;;;;;5057502;28;20198;-63
2023/07/26 03:13:39;;;;;;;0.85;0.60;;;24.10;50.80;;;;;;5057697;28;20017;-63
2023/07/26 03:16:05;;;;;;;0.60;0.60;;;24.10;50.80;;;;;;5054917;28;20129;-63
2023/07/26 03:18:30;;;;;;;1.02;0.70;;;24.10;50.80;;;;;;5055287;28;20040;-63
2023/07/26 03:20:56;;;;;;;1.23;0.60;;;24.10;50.70;;;;;;5055867;28;20040;-63
2023/07/26 03:23:21;;;;;;;0.82;0.60;;;24.10;50.70;;;;;;5056779;28;20147;-63
2023/07/26 03:25:47;;;;;;;0.55;0.55;;;24.10;50.80;;;;;;5056486;28;20519;-64
2023/07/26 03:28:13;;;;;;;0.70;0.60;;;24.10;50.70;;;;;;5055297;28;20031;-63
2023/07/26 03:30:39;;;;;;;1.17;0.70;;;24.10;50.80;;;;;;5091350;28;20040;-63
2023/07/26 03:33:04;;;;;;;0.52;0.50;;;24.10;51.30;;;;;;5056670;28;20050;-63
2023/07/26 03:35:30;;;;;;;1.20;0.70;;;24.10;50.80;;;;;;5058214;28;20131;-63
2023/07/26 03:37:56;;;;;;;0.70;0.60;;;24.10;50.80;;;;;;5057213;28;20020;-63
2023/07/26 03:40:22;;;;;;;1.20;0.70;;;24.10;50.80;;;;;;5056824;28;20036;-63
2023/07/26 03:42:47;;;;;;;0.77;0.60;;;24.10;50.80;;;;;;5058926;28;20035;-64
2023/07/26 03:45:13;;;;;;;0.70;0.60;;;24.00;50.70;;;;;;5056387;28;20153;-63
2023/07/26 03:47:38;;;;;;;0.57;0.50;;;24.00;50.70;;;;;;5053302;28;20400;-63
2023/07/26 03:50:04;;;;;;;0.70;0.60;;;24.00;50.70;;;;;;5056907;28;20040;-63
2023/07/26 03:52:30;;;;;;;0.95;0.70;;;24.10;50.70;;;;;;5054409;28;20591;-63
2023/07/26 03:54:56;;;;;;;0.80;0.70;;;24.10;50.70;;;;;;5057929;28;20033;-63
2023/07/26 03:57:21;;;;;;;0.80;0.60;;;24.00;50.70;;;;;;5057350;28;20032;-64
2023/07/26 03:59:47;;;;;;;0.98;0.60;;;24.00;50.70;;;;;;5056911;28;20388;-63
2023/07/26 04:02:12;;;;;;;0.60;0.60;;;24.00;50.70;;;;;;5055029;28;20024;-63
2023/07/26 04:04:38;;;;;;;1.13;0.70;;;24.00;50.70;;;;;;5058164;28;20527;-63
2023/07/26 04:07:04;;;;;;;1.02;0.57;;;24.00;50.70;;;;;;5088528;28;20040;-63
2023/07/26 04:09:30;;;;;;;1.08;0.70;;;24.10;50.70;;;;;;5055822;28;20485;-63
2023/07/26 04:11:56;;;;;;;0.63;0.63;;;24.00;50.70;;;;;;5053835;28;20040;-62
2023/07/26 04:14:22;;;;;;;1.00;0.60;;;24.00;50.70;;;;;;5056552;28;20461;-63
2023/07/26 04:16:48;;;;;;;1.35;0.60;;;24.10;50.70;;;;;;5054595;28;20035;-61
2023/07/26 04:19:14;;;;;;;0.90;0.55;;;24.00;50.60;;;;;;5055409;28;20024;-64
2023/07/26 04:21:39;;;;;;;1.08;0.68;;;24.00;51.10;;;;;;5055773;28;20040;-62
2023/07/26 04:24:05;;;;;;;1.23;0.63;;;24.00;50.60;;;;;;5054133;28;20036;-63
2023/07/26 04:26:31;;;;;;;0.55;0.50;;;24.00;50.60;;;;;;5058407;28;20043;-64
2023/07/26 04:28:57;;;;;;;0.70;0.63;;;24.00;50.60;;;;;;5059884;28;20111;-63
2023/07/26 04:31:23;;;;;;;0.90;0.60;;;24.00;50.60;;;;;;5058780;28;20155;-63
2023/07/26 04:33:48;;;;;;;0.85;0.75;;;24.00;50.60;;;;;;5057897;28;20025;-63
2023/07/26 04:36:15;;;;;;;1.92;0.77;;;24.00;50.60;;;;;;5060724;28;20024;-64
2023/07/26 04:38:40;;;;;;;0.80;0.60;;;24.00;50.60;;;;;;5059098;28;20431;-64
2023/07/26 04:41:06;;;;;;;0.85;0.60;;;24.00;50.60;;;;;;5060808;28;20043;-64
2023/07/26 04:43:32;;;;;;;0.70;0.70;;;24.00;50.60;;;;;;5059744;28;20037;-63
2023/07/26 04:45:57;;;;;;;1.08;0.80;;;24.00;50.60;;;;;;5058862;28;20048;-64
2023/07/26 04:48:23;;;;;;;1.10;0.70;;;24.00;50.60;;;;;;5057905;28;20170;-64
2023/07/26 04:50:49;;;;;;;1.17;0.70;;;24.00;50.60;;;;;;5058221;28;20038;-63
2023/07/26 04:53:16;;;;;;;1.17;0.93;;;24.00;50.60;;;;;;5090885;28;20354;-63
2023/07/26 04:55:46;;;;;;;0.93;0.80;;;24.00;50.60;;;;;;5058237;28;20025;-64
2023/07/26 04:58:13;;;;;;;0.95;0.80;;;24.00;50.60;;;;;;5059120;28;20057;-64
2023/07/26 05:00:39;;;;;;;0.90;0.70;;;24.00;50.60;;;;;;5059436;28;20401;-63
2023/07/26 05:03:05;;;;;;;0.95;0.75;;;23.90;50.50;;;;;;5057960;28;20034;-64
2023/07/26 05:05:32;;;;;;;1.40;0.90;;;24.00;50.60;;;;;;5060244;28;20816;-64
2023/07/26 05:07:57;;;;;;;1.27;0.80;;;24.00;51.10;;;;;;5061596;28;20035;-64
2023/07/26 05:10:25;;;;;;;0.98;0.70;;;24.00;50.50;;;;;;5059214;28;20392;-64
2023/07/26 05:12:51;;;;;;;1.40;0.90;;;23.90;50.50;;;;;;5059661;28;20047;-63
2023/07/26 05:15:17;;;;;;;0.82;0.68;;;23.90;51.00;;;;;;5058540;28;20028;-63
2023/07/26 05:17:45;;;;;;;0.93;0.70;;;24.00;50.60;;;;;;5056933;28;20082;-64
2023/07/26 05:20:12;;;;;;;0.80;0.70;;;23.90;50.50;;;;;;5060683;28;20621;-63
2023/07/26 05:22:38;;;;;;;1.30;0.80;;;24.00;50.50;;;;;;5058628;28;20039;-63
2023/07/26 05:25:04;;;;;;;1.15;0.80;;;23.90;50.50;;;;;;5057686;28;20037;-63
2023/07/26 05:27:30;;;;;;;1.30;0.90;;;23.90;50.50;;;;;;5057039;28;20518;-62
2023/07/26 05:29:57;;;;;;;1.48;0.90;;;23.90;50.50;;;;;;5060623;28;20033;-64
2023/07/26 05:32:23;;;;;;;1.27;0.90;;;23.90;50.50;;;;;;5057268;28;20132;-63
2023/07/26 05:34:50;;;;;;;1.20;0.95;;;23.90;50.50;;;;;;5058637;28;20476;-63
2023/07/26 05:37:15;;;;;;;0.90;0.80;;;23.90;50.50;;;;;;5090892;28;20500;-63
2023/07/26 05:39:41;;;;;;;1.10;0.90;;;23.90;51.00;;;;;;5059346;28;20049;-64
2023/07/26 05:42:07;;;;;;;1.25;0.85;;;23.90;50.50;;;;;;5057986;28;20476;-63
2023/07/26 05:44:32;;;;;;;1.15;0.90;;;23.90;50.50;;;;;;5057629;28;20029;-64
2023/07/26 05:46:58;;;;;;;1.02;0.75;;;23.90;50.50;;;;;;5058483;28;20035;-63
2023/07/26 05:49:24;;;;;;;1.42;0.95;;;23.90;50.50;;;;;;5056648;28;20028;-63
2023/07/26 05:51:49;;;;;;;1.05;0.88;;;23.90;50.50;;;;;;5059636;28;20060;-64
2023/07/26 05:54:15;;;;;;;1.40;0.95;;;23.90;50.50;;;;;;5057314;28;20028;-63
2023/07/26 05:56:41;;;;;;;1.02;0.80;;;23.90;50.50;;;;;;5060168;28;20417;-62
2023/07/26 05:59:06;;;;;;;0.80;0.80;;;23.90;50.40;;;;;;5059248;28;20029;-63
2023/07/26 06:01:32;;;;;;;0.93;0.80;;;23.90;50.40;;;;;;5057883;28;20021;-63
2023/07/26 06:03:57;;;;;;;1.30;0.80;;;23.90;50.40;;;;;;5056136;28;20036;-63
2023/07/26 06:06:23;;;;;;;1.13;0.90;;;23.90;50.40;;;;;;5058775;28;20025;-63
2023/07/26 06:08:50;;;;;;;1.20;0.85;;;23.90;50.40;;;;;;5059661;28;20059;-63
2023/07/26 06:11:16;;;;;;;1.33;0.90;;;23.90;50.40;;;;;;5058441;28;20040;-63
2023/07/26 06:13:42;;;;;;;1.42;0.80;;;23.90;50.40;;;;;;5060100;28;20029;-63
2023/07/26 06:16:07;;;;;;;1.23;0.90;;;23.90;50.40;;;;;;5055888;28;20021;-63
2023/07/26 06:18:33;;;;;;;1.85;1.00;;;23.90;50.40;;;;;;5056131;28;20469;-64
2023/07/26 06:20:58;;;;;;;2.03;0.90;;;23.90;50.40;;;;;;5057849;28;20170;-63
2023/07/26 06:23:24;;;;;;;1.70;0.98;;;23.90;50.40;;;;;;5057708;28;20043;-63
2023/07/26 06:25:50;;;;;;;1.30;0.90;;;23.90;50.40;;;;;;5057644;28;20036;-63
2023/07/26 06:28:15;;;;;;;1.10;0.90;;;23.90;50.40;;;;;;5058220;28;20040;-63
2023/07/26 06:30:41;;;;;;;1.25;0.80;;;23.90;50.40;;;;;;5057597;28;20043;-63
2023/07/26 06:33:06;;;;;;;0.98;0.80;;;23.90;50.40;;;;;;5063009;28;20021;-62
2023/07/26 06:35:32;;;;;;;1.17;0.90;;;23.90;50.40;;;;;;5058978;28;20025;-63
2023/07/26 06:37:58;;;;;;;1.05;0.80;;;23.90;50.40;;;;;;5057044;28;20021;-63
2023/07/26 06:40:24;;;;;;;1.10;0.90;;;23.80;50.40;;;;;;5056292;28;20036;-63
2023/07/26 06:42:49;;;;;;;1.33;0.90;;;23.90;50.40;;;;;;5056026;28;20056;-63
2023/07/26 06:45:15;;;;;;;1.30;0.90;;;23.90;50.40;;;;;;5057649;28;20033;-63
2023/07/26 06:47:40;;;;;;;1.45;0.98;;;23.80;50.40;;;;;;5058607;28;20028;-63
2023/07/26 06:50:06;;;;;;;1.02;0.80;;;23.80;50.40;;;;;;5055454;28;20135;-63
2023/07/26 06:52:32;;;;;;;1.10;0.90;;;23.90;50.50;;;;;;5057056;28;20040;-63
2023/07/26 06:54:58;;;;;;;1.60;1.10;;;23.80;50.40;;;;;;5058861;28;20500;-63
2023/07/26 06:57:23;;;;;;;1.00;0.80;;;23.90;50.50;;;;;;5056947;28;20024;-64
2023/07/26 06:59:49;;;;;;;1.45;0.90;;;23.90;50.50;;;;;;5057264;28;20090;-63
2023/07/26 07:02:15;;;;;;;1.38;0.98;;;23.80;50.40;;;;;;5055281;28;20040;-63
2023/07/26 07:04:41;;;;;;;1.15;0.90;;;23.80;50.40;;;;;;5055159;28;20033;-62
2023/07/26 07:07:06;;;;;;;1.98;0.90;;;23.80;50.50;;;;;;5055553;28;20408;-62
2023/07/26 07:09:32;;;;;;;1.42;0.90;;;23.80;50.50;;;;;;5057018;28;20024;-64
2023/07/26 07:11:58;;;;;;;1.65;1.00;;;23.80;50.50;;;;;;5057818;28;20040;-63
2023/07/26 07:14:23;;;;;;;1.80;1.10;;;23.90;50.50;;;;;;5086111;28;20052;-63
2023/07/26 07:16:49;;;;;;;1.40;0.95;;;23.80;50.50;;;;;;5055977;28;20516;-63
2023/07/26 07:19:15;;;;;;;1.67;1.00;;;23.80;50.50;;;;;;5055620;28;20370;-63
2023/07/26 07:21:41;;;;;;;1.00;0.90;;;23.90;50.60;;;;;;5053207;28;20028;-63
2023/07/26 07:24:07;;;;;;;1.48;0.90;;;23.80;50.50;;;;;;5058741;28;20035;-63
2023/07/26 07:26:33;;;;;;;1.77;1.00;;;23.80;50.50;;;;;;5056302;28;20032;-63
2023/07/26 07:28:58;;;;;;;1.52;1.00;;;23.80;50.50;;;;;;5058050;28;20028;-63
2023/07/26 07:31:24;;;;;;;1.25;1.00;;;23.80;50.50;;;;;;5056081;28;20061;-63
2023/07/26 07:33:49;;;;;;;1.17;0.82;;;23.80;50.50;;;;;;5057867;28;20427;-63
2023/07/26 07:36:18;;;;;;;1.38;0.82;;;23.80;50.60;;;;;;5056857;28;20032;-64
2023/07/26 07:38:46;;;;;;;1.02;0.93;;;23.80;50.60;;;;;;5056955;28;20030;-63
2023/07/26 07:41:13;;;;;;;1.70;1.10;;;23.80;50.70;;;;;;5057392;28;20045;-63
2023/07/26 07:43:38;;;;;;;1.65;1.00;;;23.80;50.60;;;;;;5056658;28;20051;-63
2023/07/26 07:46:04;;;;;;;1.65;1.10;;;23.80;50.70;;;;;;5055210;28;20041;-63
2023/07/26 07:48:30;;;;;;;1.23;1.00;;;23.80;50.60;;;;;;5056169;28;20082;-63
2023/07/26 07:50:56;;;;;;;1.33;0.90;;;23.80;50.60;;;;;;5056643;28;20326;-63
2023/07/26 07:53:23;;;;;;;1.27;0.95;;;23.80;50.60;;;;;;5059807;28;20017;-63
2023/07/26 07:55:49;;;;;;;1.55;1.00;;;23.80;50.70;;;;;;5056018;28;20079;-64
2023/07/26 07:58:14;;;;;;;1.50;1.00;;;23.80;50.70;;;;;;5057183;28;20117;-63
2023/07/26 08:00:40;;;;;;;1.52;0.90;;;23.80;50.70;;;;;;5055999;28;20021;-63
2023/07/26 08:03:06;;;;;;;1.15;0.93;;;23.80;50.70;;;;;;5061201;28;20094;-63
2023/07/26 08:05:35;;;;;;;2.00;1.10;;;23.80;51.20;;;;;;5057945;28;20082;-63
2023/07/26 08:08:01;;;;;;;;;;;23.80;50.70;;;;;;5059408;28;20047;-63
2023/07/26 08:10:27;;;;;;;2.10;1.30;;;23.80;50.70;;;;;;5060152;28;19955;-62
2023/07/26 08:12:52;;;;;;;1.35;0.98;;;23.80;50.70;;;;;;5061381;28;20037;-63
2023/07/26 08:15:18;;;;;;;1.63;1.10;;;23.80;50.70;;;;;;5059247;28;20020;-63
2023/07/26 08:17:44;;;;;;;1.23;1.00;;;23.80;50.70;;;;;;5059158;28;20032;-63
2023/07/26 08:20:10;;;;;;;1.50;1.10;;;23.80;50.70;;;;;;5055746;28;20028;-63
2023/07/26 08:22:36;;;;;;;1.58;1.20;;;23.80;50.70;;;;;;5060758;28;20523;-63
2023/07/26 08:25:02;;;;;;;1.33;0.95;;;23.80;50.70;;;;;;5059069;28;20025;-63
2023/07/26 08:27:28;;;;;;;0.90;0.80;;;23.70;50.70;;;;;;5062783;28;20121;-63
2023/07/26 08:29:53;;;;;;;1.30;1.00;;;23.70;50.70;;;;;;5060851;28;20063;-62
2023/07/26 08:32:19;;;;;;;2.05;1.20;;;23.80;50.80;;;;;;5059564;28;20458;-63
2023/07/26 08:34:45;;;;;;;1.60;1.00;;;23.80;50.70;;;;;;5059767;28;20025;-63
2023/07/26 08:37:10;;;;;;;2.38;1.10;;;23.70;50.70;;;;;;5062783;28;20029;-63
2023/07/26 08:39:36;;;;;;;1.42;1.10;;;23.70;50.70;;;;;;5061924;28;20111;-63
2023/07/26 08:42:03;;;;;;;1.20;0.90;;;23.80;50.80;;;;;;5060097;28;20499;-64
2023/07/26 08:44:30;;;;;;;1.50;0.98;;;23.80;50.70;;;;;;5060202;28;20484;-63
2023/07/26 08:46:58;;;;;;;1.45;0.98;;;23.80;50.80;;;;;;5060790;28;20480;-63
2023/07/26 08:49:24;;;;;;;1.73;1.02;;;23.70;50.70;;;;;;5054231;28;20907;-63
2023/07/26 08:51:50;;;;;;;1.10;1.00;;;23.80;50.80;;;;;;5058321;28;20025;-64
2023/07/26 08:54:16;;;;;;;1.30;1.00;;;23.70;50.70;;;;;;5057142;28;20060;-63
2023/07/26 08:56:42;;;;;;;1.42;1.00;;;23.80;51.30;;;;;;5057843;28;20425;-64
2023/07/26 08:59:07;;;;;;;1.30;1.00;;;23.70;50.70;;;;;;5057918;28;20100;-63
2023/07/26 09:01:34;;;;;;;1.58;0.95;;;23.70;50.70;;;;;;5058076;28;20028;-64
2023/07/26 09:03:59;;;;;;;1.67;1.05;;;23.80;50.80;;;;;;5059691;28;20048;-63
2023/07/26 09:06:25;;;;;;;1.40;0.95;;;23.70;50.70;;;;;;5056851;28;20029;-63
2023/07/26 09:08:52;;;;;;;1.73;1.00;;;23.80;50.80;;;;;;5059920;28;20116;-64
2023/07/26 09:11:26;;;;;;;1.73;0.90;;;23.70;51.20;;;;;;5057993;28;20028;-62
2023/07/26 09:13:56;;;;;;;1.08;0.82;;;23.70;51.20;;;;;;5059272;28;20063;-63
2023/07/26 09:16:27;;;;;;;1.80;1.05;;;23.70;50.70;;;;;;5092472;28;20025;-63
2023/07/26 09:19:00;;;;;;;2.22;1.00;;;23.80;50.70;;;;;;5060246;28;20025;-64
2023/07/26 09:21:27;;;;;;;1.58;1.08;;;23.70;50.70;;;;;;5057133;28;20085;-63
2023/07/26 09:23:53;;;;;;;1.40;1.10;;;23.80;50.70;;;;;;5058649;28;20033;-64
2023/07/26 09:26:33;;;;;;;1.23;0.90;;;23.80;50.70;;;;;;5057694;28;20021;-64
2023/07/26 09:28:59;;;;;;;1.38;0.95;;;23.80;50.70;;;;;;5074214;28;20025;-63
2023/07/26 09:31:34;;;;;;;1.30;1.00;;;23.70;50.60;;;;;;5056692;28;20029;-62
2023/07/26 09:34:04;;;;;;;1.40;0.90;;;23.70;50.60;;;;;;5057252;28;20062;-63
2023/07/26 09:36:51;;;;;;;1.20;0.90;;;23.80;50.70;;;;;;5057381;28;20048;-63
2023/07/26 09:39:22;;;;;;;1.13;0.90;;;23.70;51.10;;;;;;5060706;28;20476;-63
2023/07/26 09:41:50;;;;;;;1.70;1.10;;;23.80;50.60;;;;;;5059048;28;20354;-62
2023/07/26 09:44:20;;;;;;;1.45;1.00;;;23.70;50.60;;;;;;5058118;28;20048;-63
2023/07/26 09:46:53;;;;;;;1.30;0.90;;;23.70;50.60;;;;;;5060912;28;20029;-63
2023/07/26 09:49:27;;;;;;;1.65;1.10;;;23.80;50.60;;;;;;5058565;28;20509;-63
2023/07/26 09:51:54;;;;;;;1.50;0.90;;;23.70;50.60;;;;;;5090753;28;20025;-62
2023/07/26 09:54:21;;;;;;;1.05;0.90;;;23.70;51.10;;;;;;5058054;28;20060;-63
2023/07/26 09:56:47;;;;;;;1.13;0.95;;;23.70;50.60;;;;;;5057296;28;20024;-63
2023/07/26 09:59:14;;;;;;;1.08;0.90;;;23.80;50.70;;;;;;5057215;28;20046;-63
2023/07/26 10:01:45;;;;;;;1.08;0.80;;;23.80;50.70;;;;;;5055740;28;20029;-63
2023/07/26 10:04:26;;;;;;;1.02;0.90;;;23.70;50.60;;;;;;5056521;28;20048;-63
2023/07/26 10:06:55;;;;;;;1.35;0.98;;;23.70;50.70;;;;;;5057122;28;20075;-63
2023/07/26 10:09:23;;;;;;;1.40;1.00;;;23.80;50.70;;;;;;5058137;28;20436;-63
2023/07/26 10:11:49;;;;;;;1.20;0.80;;;23.80;50.70;;;;;;5059194;28;20041;-64
2023/07/26 10:14:16;;;;;;;1.80;0.90;;;23.80;50.70;;;;;;5056778;28;20041;-63
2023/07/26 10:16:42;;;;;;;1.23;0.90;;;23.70;50.60;;;;;;5057460;28;20112;-62
2023/07/26 10:19:08;;;;;;;1.42;1.10;;;23.80;50.70;;;;;;5058475;28;20429;-64
2023/07/26 10:21:37;;;;;;;1.40;1.00;;;23.80;50.70;;;;;;5055800;28;20032;-63
2023/07/26 10:24:04;;;;;;;1.10;0.90;;;23.70;50.60;;;;;;5056711;28;20033;-64
2023/07/26 10:26:33;;;;;;;1.48;1.00;;;23.80;50.70;;;;;;5056100;28;20483;-63
2023/07/26 10:28:59;;;;;;;1.38;1.00;;;23.80;50.80;;;;;;5058403;28;20066;-63
2023/07/26 10:31:29;;;;;;;1.20;0.90;;;23.80;50.70;;;;;;5056437;28;20079;-63
2023/07/26 10:33:56;;;;;;;1.23;1.00;;;23.80;50.70;;;;;;5057316;28;20029;-63
2023/07/26 10:36:32;;;;;;;1.90;1.00;;;23.70;50.70;;;;;;5055429;28;20507;-63
2023/07/26 10:39:04;;;;;;;1.58;1.00;;;23.80;50.70;;;;;;5057111;28;20582;-63
2023/07/26 10:41:30;;;;;;;1.42;1.00;;;23.70;50.70;;;;;;5059455;28;20570;-63
2023/07/26 10:44:07;;;;;;;1.70;1.00;;;23.70;50.70;;;;;;5090920;28;20100;-63
2023/07/26 10:47:00;;;;;;;1.88;1.23;;;23.80;50.80;;;;;;5055909;28;20048;-63
2023/07/26 10:49:28;;;;;;;1.20;1.00;;;23.80;50.80;;;;;;5058245;28;20028;-62
2023/07/26 10:52:02;;;;;;;1.30;1.00;;;23.70;50.70;;;;;;5054945;28;20099;-62
2023/07/26 10:54:43;;;;;;;1.10;0.75;;;23.70;50.70;;;;;;5058909;28;20033;-62
2023/07/26 10:57:20;;;;;;;1.70;1.10;;;23.70;50.80;;;;;;5057447;28;20119;-62
2023/07/26 10:59:59;;;;;;;1.17;1.00;;;23.70;50.70;;;;;;5056711;28;20059;-62
2023/07/26 11:02:37;;;;;;;1.35;0.98;;;23.70;50.80;;;;;;5056321;28;20473;-61
2023/07/26 11:05:06;;;;;;;1.20;0.93;;;23.70;50.80;;;;;;5056975;28;20059;-62
2023/07/26 11:07:53;;;;;;;1.35;1.00;;;23.70;50.70;;;;;;5058172;28;20102;-62
2023/07/26 11:10:31;;;;;;;1.70;1.00;;;23.70;51.30;;;;;;5060125;28;20043;-62
2023/07/26 11:13:19;;;;;;;1.70;1.20;;;23.70;50.80;;;;;;5057755;28;20155;-62
2023/07/26 11:15:47;;;;;;;1.00;0.80;;;23.80;50.80;;;;;;5077105;28;20111;-62
2023/07/26 11:18:14;;;;;;;1.70;0.90;;;23.70;50.80;;;;;;5077599;28;20024;-62
2023/07/26 11:20:48;;;;;;;1.23;0.90;;;23.70;51.30;;;;;;5077311;28;20048;-63
2023/07/26 11:23:22;;;;;;;1.35;1.00;;;23.70;50.80;;;;;;5076469;28;20021;-62
2023/07/26 11:25:50;;;;;;;1.33;1.05;;;23.70;50.80;;;;;;5077047;28;20503;-63
2023/07/26 11:28:16;;;;;;;1.45;0.90;;;23.80;50.80;;;;;;5077400;28;20013;-62
2023/07/26 11:30:50;;;;;;;1.20;0.98;;;23.80;50.80;;;;;;5077334;28;20016;-63
2023/07/26 11:33:36;;;;;;;1.10;0.93;;;23.80;50.80;;;;;;5076879;28;20448;-63
2023/07/26 11:36:07;;;;;;;0.82;0.80;;;23.80;51.30;;;;;;5078100;28;20103;-63
2023/07/26 11:38:33;;;;;;;1.83;1.10;;;23.70;50.70;;;;;;5081153;28;20030;-62
2023/07/26 11:40:59;;;;;;;1.35;1.00;;;23.80;50.80;;;;;;5081984;28;20428;-62
2023/07/26 11:43:27;;;;;;;0.98;0.80;;;23.80;50.80;;;;;;5079841;28;20031;-63
2023/07/26 11:45:54;;;;;;;1.30;1.00;;;23.80;50.80;;;;;;5082162;28;20030;-62
2023/07/26 11:48:20;;;;;;;1.00;0.90;;;23.80;50.80;;;;;;5082371;28;20032;-62
2023/07/26 11:50:46;;;;;;;1.10;0.88;;;23.80;50.90;;;;;;5078475;28;20046;-63
2023/07/26 11:53:14;;;;;;;1.55;1.10;;;23.80;50.80;;;;;;5082045;28;20023;-62
2023/07/26 11:55:42;;;;;;;1.27;1.00;;;23.80;50.70;;;;;;5081073;28;20024;-63
2023/07/26 11:58:10;;;;;;;1.10;1.00;;;23.80;50.70;;;;;;5096765;28;20023;-62
2023/07/26 12:00:38;;;;;;;1.25;0.98;;;23.80;50.70;;;;;;5080446;28;20020;-62
2023/07/26 12:03:05;;;;;;;1.00;0.82;;;23.80;50.70;;;;;;5079967;28;20036;-62
2023/07/26 12:05:32;;;;;;;1.40;0.93;;;23.80;50.70;;;;;;5067114;28;20081;-62
2023/07/26 12:08:07;;;;;;;1.30;1.02;;;23.80;50.70;;;;;;5081375;28;20052;-63
2023/07/26 12:10:41;;;;;;;1.27;1.00;;;23.80;50.70;;;;;;5081191;28;20032;-63
2023/07/26 12:13:17;;;;;;;1.05;0.80;;;23.80;50.70;;;;;;5081077;28;20036;-62
2023/07/26 12:15:58;;;;;;;1.77;1.00;;;23.80;50.70;;;;;;5095611;28;20477;-62
2023/07/26 12:18:25;;;;;;;1.20;0.90;;;23.80;50.70;;;;;;5068159;28;20020;-62
2023/07/26 12:21:08;;;;;;;1.45;1.00;;;23.80;50.70;;;;;;5079478;28;20031;-63
2023/07/26 12:23:51;;;;;;;1.30;1.00;;;23.80;50.70;;;;;;5082171;28;20146;-62
2023/07/26 12:26:18;;;;;;;1.45;0.95;;;23.80;50.70;;;;;;5079402;28;20162;-63
2023/07/26 12:28:44;;;;;;;1.50;1.10;;;23.80;50.70;;;;;;5079524;28;20020;-63
2023/07/26 12:31:24;;;;;;;1.60;1.10;;;23.80;50.70;;;;;;5078700;28;20518;-63
2023/07/26 12:33:57;;;;;;;1.42;1.10;;;23.80;50.60;;;;;;5079744;28;20131;-62
2023/07/26 12:36:47;;;;;;;1.60;1.08;;;23.90;50.60;;;;;;5063008;28;20020;-63
2023/07/26 12:39:14;;;;;;;1.30;0.90;;;23.80;50.60;;;;;;5081565;28;20021;-62
2023/07/26 12:41:41;;;;;;;1.38;0.98;;;23.80;50.60;;;;;;5079642;28;20510;-62
2023/07/26 12:44:07;;;;;;;1.50;1.20;;;23.80;50.60;;;;;;5079118;28;20035;-63
2023/07/26 12:46:33;;;;;;;1.20;1.10;;;23.90;50.60;;;;;;5067749;28;20035;-63
2023/07/26 12:48:59;;;;;;;1.52;1.05;;;23.90;51.10;;;;;;5079272;28;20487;-62